createdAt,value
2023-03-17T00:02:07.630Z,17.60
2023-03-17T00:04:37.170Z,18.70
2023-03-17T00:07:07.126Z,15.93
2023-03-17T00:09:35.291Z,12.02
2023-03-17T00:12:03.851Z,14.40
2023-03-17T00:14:31.985Z,18.63
2023-03-17T00:17:00.234Z,17.70
2023-03-17T00:19:31.486Z,17.90
2023-03-17T00:22:02.071Z,14.45
2023-03-17T00:24:31.225Z,19.30
2023-03-17T00:26:59.951Z,12.35
2023-03-17T00:29:28.170Z,20.80
2023-03-17T00:31:59.021Z,14.73
2023-03-17T00:34:27.367Z,11.25
2023-03-17T00:36:56.239Z,16.15
2023-03-17T00:39:27.281Z,12.77
2023-03-17T00:41:55.409Z,14.40
2023-03-17T00:44:24.287Z,14.10
2023-03-17T00:46:52.720Z,11.15
2023-03-17T00:49:23.554Z,17.58
2023-03-17T00:51:52.277Z,12.60
2023-03-17T00:54:21.948Z,9.85
2023-03-17T00:56:53.346Z,17.27
2023-03-17T00:59:26.190Z,22.92
2023-03-17T01:01:55.521Z,19.05
2023-03-17T01:04:24.303Z,15.68
2023-03-17T01:06:53.366Z,27.73
2023-03-17T01:09:26.593Z,22.90
2023-03-17T01:11:56.691Z,23.58
2023-03-17T01:14:25.994Z,22.95
2023-03-17T01:16:55.228Z,22.27
2023-03-17T01:19:23.867Z,20.90
2023-03-17T01:21:52.400Z,22.35
2023-03-17T01:24:21.152Z,20.70
2023-03-17T01:26:49.310Z,20.48
2023-03-17T01:29:18.975Z,27.50
2023-03-17T01:31:47.795Z,30.02
2023-03-17T01:34:16.041Z,28.67
2023-03-17T01:36:44.478Z,23.95
2023-03-17T01:39:13.057Z,23.08
2023-03-17T01:41:41.492Z,33.83
2023-03-17T01:44:17.015Z,31.58
2023-03-17T01:46:47.595Z,41.47
2023-03-17T01:49:27.926Z,30.67
2023-03-17T01:54:37.324Z,42.67
2023-03-17T01:57:14.305Z,29.70
2023-03-17T01:59:47.745Z,31.77
2023-03-17T02:02:20.681Z,35.83
2023-03-17T02:04:49.526Z,26.65
2023-03-17T02:07:17.700Z,37.58
2023-03-17T02:09:46.190Z,36.05
2023-03-17T02:12:15.652Z,29.77
2023-03-17T02:14:44.220Z,37.80
2023-03-17T02:17:13.033Z,47.10
2023-03-17T02:19:42.635Z,36.35
2023-03-17T02:22:12.556Z,23.35
2023-03-17T02:24:44.434Z,26.23
2023-03-17T02:27:17.456Z,20.55
2023-03-17T02:29:47.365Z,20.75
2023-03-17T02:32:17.858Z,31.10
2023-03-17T02:34:47.162Z,21.83
2023-03-17T02:37:17.677Z,31.15
2023-03-17T02:39:46.682Z,24.02
2023-03-17T02:42:15.312Z,20.48
2023-03-17T02:44:43.754Z,24.50
2023-03-17T02:47:12.191Z,19.55
2023-03-17T02:49:41.922Z,25.27
2023-03-17T02:52:10.368Z,30.02
2023-03-17T02:54:40.511Z,20.27
2023-03-17T02:57:08.887Z,15.98
2023-03-17T02:59:38.572Z,20.40
2023-03-17T03:02:07.060Z,20.98
2023-03-17T03:04:36.031Z,21.27
2023-03-17T03:07:04.193Z,19.42
2023-03-17T03:09:32.422Z,21.80
2023-03-17T03:12:01.967Z,13.10
2023-03-17T03:14:30.199Z,15.63
2023-03-17T03:16:58.654Z,20.95
2023-03-17T03:19:26.823Z,22.48
2023-03-17T03:21:55.061Z,19.88
2023-03-17T03:24:23.221Z,21.25
2023-03-17T03:26:51.933Z,25.08
2023-03-17T03:29:21.400Z,17.88
2023-03-17T03:31:49.628Z,19.92
2023-03-17T03:34:17.791Z,20.42
2023-03-17T03:36:46.021Z,16.60
2023-03-17T03:39:14.609Z,18.17
2023-03-17T03:41:42.884Z,19.80
2023-03-17T03:44:11.107Z,16.52
2023-03-17T03:46:40.823Z,17.45
2023-03-17T03:49:09.127Z,17.70
2023-03-17T03:51:37.784Z,24.23
2023-03-17T03:54:05.973Z,25.77
2023-03-17T03:56:34.437Z,19.55
2023-03-17T03:59:02.648Z,14.98
2023-03-17T04:01:30.741Z,17.52
2023-03-17T04:04:00.362Z,23.10
2023-03-17T04:06:28.738Z,21.40
2023-03-17T04:08:58.313Z,21.35
2023-03-17T04:11:26.545Z,24.00
2023-03-17T04:13:54.694Z,14.40
2023-03-17T04:16:23.046Z,20.13
2023-03-17T04:18:51.318Z,19.35
2023-03-17T04:21:21.651Z,24.95
2023-03-17T04:23:49.937Z,22.65
2023-03-17T04:26:19.257Z,28.63
2023-03-17T04:28:47.810Z,36.83
2023-03-17T04:31:16.417Z,19.52
2023-03-17T04:33:44.666Z,26.80
2023-03-17T04:36:19.525Z,32.95
2023-03-17T04:38:49.283Z,32.90
2023-03-17T04:41:17.831Z,32.15
2023-03-17T04:43:46.280Z,33.60
2023-03-17T04:46:15.134Z,41.20
2023-03-17T04:48:43.438Z,46.63
2023-03-17T04:51:12.246Z,30.40
2023-03-17T04:53:40.528Z,43.13
2023-03-17T04:56:10.306Z,34.42
2023-03-17T04:58:38.420Z,29.08
2023-03-17T05:01:07.574Z,28.08
2023-03-17T05:03:36.316Z,32.40
2023-03-17T05:06:06.223Z,32.63
2023-03-17T05:08:34.481Z,28.25
2023-03-17T05:11:03.224Z,36.10
2023-03-17T05:13:32.947Z,33.42
2023-03-17T05:16:01.608Z,40.88
2023-03-17T05:18:29.883Z,52.90
2023-03-17T05:20:57.964Z,40.17
2023-03-17T05:23:26.339Z,41.78
2023-03-17T05:25:54.852Z,39.75
2023-03-17T05:28:23.428Z,39.67
2023-03-17T05:30:53.084Z,33.03
2023-03-17T05:33:21.863Z,40.15
2023-03-17T05:35:50.272Z,53.33
2023-03-17T05:38:18.898Z,42.35
2023-03-17T05:40:48.558Z,52.58
2023-03-17T05:43:16.921Z,48.80
2023-03-17T05:45:45.682Z,62.92
2023-03-17T05:48:15.200Z,34.40
2023-03-17T05:50:43.721Z,46.38
2023-03-17T05:53:12.258Z,44.42
2023-03-17T05:55:40.623Z,51.28
2023-03-17T05:58:09.686Z,45.63
2023-03-17T06:00:38.096Z,50.28
2023-03-17T06:03:06.496Z,40.10
2023-03-17T06:05:36.830Z,45.10
2023-03-17T06:08:05.887Z,56.42
2023-03-17T06:10:34.452Z,56.67
2023-03-17T06:13:03.971Z,37.20
2023-03-17T06:15:33.986Z,41.53
2023-03-17T06:18:02.670Z,40.83
2023-03-17T06:20:31.310Z,41.10
2023-03-17T06:23:05.025Z,40.25
2023-03-17T06:25:34.801Z,40.17
2023-03-17T06:28:04.036Z,39.38
2023-03-17T06:30:32.957Z,41.40
2023-03-17T06:33:01.700Z,42.83
2023-03-17T06:35:30.302Z,41.67
2023-03-17T06:38:01.019Z,44.97
2023-03-17T06:40:29.617Z,42.67
2023-03-17T06:42:58.290Z,39.42
2023-03-17T06:45:26.887Z,42.83
2023-03-17T06:47:55.189Z,39.33
2023-03-17T06:50:23.367Z,39.00
2023-03-17T06:52:51.618Z,43.75
2023-03-17T06:55:21.621Z,34.88
2023-03-17T06:57:51.184Z,50.50
2023-03-17T07:00:21.195Z,55.03
2023-03-17T07:02:49.788Z,43.55
2023-03-17T07:05:18.654Z,48.47
2023-03-17T07:07:47.295Z,38.90
2023-03-17T07:10:16.023Z,34.92
2023-03-17T07:12:45.883Z,41.63
2023-03-17T07:15:14.165Z,40.53
2023-03-17T07:17:42.701Z,36.72
2023-03-17T07:20:12.036Z,38.70
2023-03-17T07:22:40.315Z,45.63
2023-03-17T07:25:09.831Z,34.03
2023-03-17T07:27:38.207Z,43.33
2023-03-17T07:30:09.758Z,51.90
2023-03-17T07:35:08.268Z,40.42
2023-03-17T07:37:36.589Z,43.35
2023-03-17T07:40:06.396Z,39.70
2023-03-17T07:42:34.692Z,53.35
2023-03-17T07:45:03.838Z,41.05
2023-03-17T07:47:33.607Z,49.50
2023-03-17T07:50:02.179Z,44.22
2023-03-17T07:52:30.751Z,56.78
2023-03-17T07:54:59.549Z,50.83
2023-03-17T07:57:28.842Z,41.00
2023-03-17T07:59:57.019Z,40.78
2023-03-17T08:02:25.365Z,33.80
2023-03-17T08:04:55.213Z,44.85
2023-03-17T08:07:23.348Z,38.72
2023-03-17T08:09:52.704Z,42.25
2023-03-17T08:12:21.304Z,47.47
2023-03-17T08:14:49.459Z,43.80
2023-03-17T08:17:18.083Z,42.47
2023-03-17T08:19:46.221Z,42.28
2023-03-17T08:22:15.716Z,44.03
2023-03-17T08:24:44.460Z,40.78
2023-03-17T08:27:12.897Z,33.15
2023-03-17T08:29:41.123Z,44.20
2023-03-17T08:32:10.067Z,52.15
2023-03-17T08:34:38.579Z,49.17
2023-03-17T08:37:10.043Z,36.63
2023-03-17T08:39:41.042Z,48.20
2023-03-17T08:42:09.240Z,48.83
2023-03-17T08:44:37.380Z,49.85
2023-03-17T08:47:05.827Z,48.17
2023-03-17T08:49:36.664Z,41.70
2023-03-17T08:52:05.345Z,36.42
2023-03-17T08:54:35.913Z,45.45
2023-03-17T08:57:05.741Z,31.57
2023-03-17T08:59:34.444Z,44.30
2023-03-17T09:02:02.757Z,28.98
2023-03-17T09:04:32.589Z,31.17
2023-03-17T09:07:03.999Z,36.50
2023-03-17T09:09:32.865Z,30.83
2023-03-17T09:12:01.111Z,35.95
2023-03-17T09:14:40.103Z,32.83
2023-03-17T09:17:12.248Z,29.30
2023-03-17T09:19:40.590Z,35.80
2023-03-17T09:22:09.219Z,24.48
2023-03-17T09:24:37.462Z,35.72
2023-03-17T09:27:05.851Z,39.08
2023-03-17T09:29:35.838Z,40.50
2023-03-17T09:32:04.213Z,30.13
2023-03-17T09:34:32.873Z,31.27
2023-03-17T09:37:00.999Z,39.75
2023-03-17T09:39:29.244Z,25.70
2023-03-17T09:42:10.240Z,24.75
2023-03-17T09:44:59.482Z,28.08
2023-03-17T09:47:52.595Z,50.20
2023-03-17T09:50:26.724Z,29.55
2023-03-17T09:52:58.617Z,36.40
2023-03-17T09:55:30.580Z,40.40
2023-03-17T09:58:01.024Z,43.38
2023-03-17T10:00:31.383Z,39.72
2023-03-17T10:03:00.424Z,34.00
2023-03-17T10:05:31.225Z,36.80
2023-03-17T10:08:28.938Z,44.92
2023-03-17T10:11:04.397Z,35.80
2023-03-17T10:13:49.329Z,31.27
2023-03-17T10:16:20.922Z,40.22
2023-03-17T10:21:27.164Z,43.13
2023-03-17T10:23:57.490Z,37.83
2023-03-17T10:26:32.995Z,51.20
2023-03-17T10:29:04.182Z,38.15
2023-03-17T10:31:35.790Z,32.30
2023-03-17T10:36:44.681Z,28.00
2023-03-17T10:39:15.665Z,35.30
2023-03-17T10:41:54.148Z,25.00
2023-03-17T10:44:24.838Z,28.30
2023-03-17T10:46:58.299Z,25.50
2023-03-17T10:49:26.871Z,33.08
2023-03-17T10:51:55.804Z,24.05
2023-03-17T10:54:26.590Z,34.95
2023-03-17T10:57:02.642Z,31.27
2023-03-17T10:59:33.302Z,30.45
2023-03-17T11:02:16.922Z,31.33
2023-03-17T11:04:45.055Z,32.20
2023-03-17T11:07:18.690Z,33.33
2023-03-17T11:09:50.800Z,34.08
2023-03-17T11:12:26.564Z,30.63
2023-03-17T11:14:59.393Z,27.42
2023-03-17T11:17:40.177Z,25.60
2023-03-17T11:20:39.661Z,32.25
2023-03-17T11:23:16.263Z,32.00
2023-03-17T11:25:47.651Z,27.83
2023-03-17T11:28:20.862Z,28.88
2023-03-17T11:31:03.792Z,30.77
2023-03-17T11:33:43.901Z,34.22
2023-03-17T11:36:28.579Z,50.75
2023-03-17T11:39:02.328Z,50.38
2023-03-17T11:41:51.815Z,54.72
2023-03-17T11:44:56.309Z,51.20
2023-03-17T11:47:39.824Z,47.55
2023-03-17T11:50:22.351Z,48.05
2023-03-17T11:55:33.049Z,39.65
2023-03-17T11:58:05.663Z,29.65
2023-03-17T12:00:35.696Z,49.40
2023-03-17T12:03:15.779Z,43.08
2023-03-17T12:05:48.939Z,44.65
2023-03-17T12:08:25.907Z,46.28
2023-03-17T12:10:56.651Z,48.63
2023-03-17T12:13:29.906Z,43.25
2023-03-17T12:16:04.499Z,40.28
2023-03-17T12:18:38.353Z,45.00
2023-03-17T12:21:14.771Z,50.33
2023-03-17T12:23:49.668Z,42.92
2023-03-17T12:26:20.415Z,55.17
2023-03-17T12:28:55.211Z,57.57
2023-03-17T12:31:30.214Z,49.65
2023-03-17T12:34:05.106Z,58.25
2023-03-17T12:36:36.812Z,46.80
2023-03-17T12:41:51.065Z,38.60
2023-03-17T12:44:34.489Z,42.65
2023-03-17T12:47:17.371Z,36.13
2023-03-17T12:50:07.551Z,42.55
2023-03-17T12:53:00.597Z,32.03
2023-03-17T12:55:32.410Z,47.92
2023-03-17T12:58:03.606Z,39.03
2023-03-17T13:00:35.200Z,36.67
2023-03-17T13:03:18.574Z,30.15
2023-03-17T13:05:50.846Z,34.42
2023-03-17T13:08:28.279Z,26.77
2023-03-17T13:11:19.060Z,38.65
2023-03-17T13:13:59.303Z,37.08
2023-03-17T13:16:32.262Z,44.00
2023-03-17T13:19:26.951Z,45.55
2023-03-17T13:22:35.086Z,39.72
2023-03-17T13:25:16.709Z,30.23
2023-03-17T13:30:58.557Z,23.63
2023-03-17T13:33:33.025Z,50.63
2023-03-17T13:36:10.861Z,37.33
2023-03-17T13:39:05.133Z,30.70
2023-03-17T13:41:52.113Z,42.08
2023-03-17T13:44:35.549Z,38.17
2023-03-17T13:47:27.331Z,28.83
2023-03-17T13:50:01.317Z,19.90
2023-03-17T13:52:34.550Z,21.60
2023-03-17T13:55:29.507Z,19.70
2023-03-17T13:58:33.379Z,33.97
2023-03-17T14:01:06.809Z,33.35
2023-03-17T14:03:41.984Z,26.30
2023-03-17T14:06:13.514Z,27.08
2023-03-17T14:11:24.114Z,22.85
2023-03-17T14:14:04.858Z,30.27
2023-03-17T14:16:35.930Z,29.42
2023-03-17T14:19:13.224Z,50.08
2023-03-17T14:21:41.587Z,34.65
2023-03-17T14:24:20.821Z,18.52
2023-03-17T14:26:51.181Z,27.05
2023-03-17T14:29:22.334Z,33.65
2023-03-17T14:31:54.132Z,26.33
2023-03-17T14:34:23.394Z,22.83
2023-03-17T14:36:53.245Z,24.30
2023-03-17T14:39:24.666Z,34.35
2023-03-17T14:42:02.341Z,28.60
2023-03-17T14:44:38.864Z,21.73
2023-03-17T14:47:14.132Z,31.33
2023-03-17T14:49:42.344Z,23.10
2023-03-17T14:52:20.592Z,24.08
2023-03-17T14:54:53.651Z,12.18
2023-03-17T14:57:29.179Z,25.45
2023-03-17T14:59:59.130Z,25.00
2023-03-17T15:02:34.563Z,24.35
2023-03-17T15:05:07.956Z,29.88
2023-03-17T15:07:39.906Z,23.00
2023-03-17T15:10:16.618Z,23.02
2023-03-17T15:12:47.405Z,19.20
2023-03-17T15:15:23.376Z,30.83
2023-03-17T15:17:58.155Z,15.85
2023-03-17T15:20:27.115Z,20.10
2023-03-17T15:23:00.131Z,27.08
2023-03-17T15:25:35.429Z,31.75
2023-03-17T15:28:12.218Z,16.92
2023-03-17T15:30:47.516Z,19.95
2023-03-17T15:33:22.413Z,34.28
2023-03-17T15:35:51.843Z,46.67
2023-03-17T15:38:20.024Z,39.38
2023-03-17T15:40:48.206Z,28.88
2023-03-17T15:43:19.149Z,34.75
2023-03-17T15:45:47.559Z,38.08
2023-03-17T15:48:21.498Z,18.65
2023-03-17T15:50:50.113Z,26.20
2023-03-17T15:53:18.346Z,26.13
2023-03-17T15:55:47.284Z,26.80
2023-03-17T15:58:15.822Z,25.48
2023-03-17T16:00:46.507Z,35.63
2023-03-17T16:03:20.159Z,24.17
2023-03-17T16:05:48.313Z,30.42
2023-03-17T16:08:18.006Z,24.90
2023-03-17T16:10:46.927Z,28.73
2023-03-17T16:13:15.187Z,32.83
2023-03-17T16:15:48.460Z,32.88
2023-03-17T16:18:19.621Z,28.67
2023-03-17T16:20:50.919Z,37.10
2023-03-17T16:23:21.377Z,37.80
2023-03-17T16:25:50.464Z,24.70
2023-03-17T16:28:20.420Z,27.27
2023-03-17T16:30:51.569Z,29.48
2023-03-17T16:33:22.281Z,30.25
2023-03-17T16:35:52.467Z,16.00
2023-03-17T16:38:24.418Z,13.23
2023-03-17T16:40:55.086Z,21.98
2023-03-17T16:43:26.927Z,16.90
2023-03-17T16:45:59.482Z,17.70
2023-03-17T16:48:28.676Z,21.63
2023-03-17T16:50:57.741Z,17.75
2023-03-17T16:53:26.320Z,22.83
2023-03-17T16:55:55.774Z,34.25
2023-03-17T16:58:26.081Z,29.98
2023-03-17T17:00:58.751Z,30.08
2023-03-17T17:03:27.237Z,33.55
2023-03-17T17:05:55.454Z,24.38
2023-03-17T17:08:23.492Z,20.05
2023-03-17T17:10:52.340Z,25.48
2023-03-17T17:13:20.610Z,23.98
2023-03-17T17:15:49.025Z,31.55
2023-03-17T17:18:21.867Z,28.02
2023-03-17T17:20:50.745Z,23.52
2023-03-17T17:23:22.499Z,27.88
2023-03-17T17:25:51.523Z,29.77
2023-03-17T17:28:22.490Z,35.75
2023-03-17T17:30:51.764Z,33.38
2023-03-17T17:33:22.240Z,49.53
2023-03-17T17:35:51.322Z,40.50
2023-03-17T17:38:22.972Z,45.38
2023-03-17T17:40:51.383Z,37.00
2023-03-17T17:43:19.555Z,47.65
2023-03-17T17:45:49.880Z,45.28
2023-03-17T17:48:19.687Z,43.97
2023-03-17T17:50:49.733Z,44.90
2023-03-17T17:53:18.145Z,29.75
2023-03-17T17:55:48.820Z,34.00
2023-03-17T17:58:19.636Z,37.53
2023-03-17T18:00:48.402Z,46.22
2023-03-17T18:03:16.848Z,44.85
2023-03-17T18:05:44.957Z,35.72
2023-03-17T18:08:15.967Z,29.83
2023-03-17T18:10:44.216Z,28.30
2023-03-17T18:13:12.500Z,29.35
2023-03-17T18:15:40.848Z,27.55
2023-03-17T18:18:09.113Z,28.27
2023-03-17T18:20:37.251Z,27.15
2023-03-17T18:23:05.531Z,28.38
2023-03-17T18:25:35.164Z,28.08
2023-03-17T18:28:03.484Z,21.85
2023-03-17T18:30:35.056Z,16.55
2023-03-17T18:33:07.769Z,25.60
2023-03-17T18:35:36.786Z,21.45
2023-03-17T18:38:05.183Z,18.58
2023-03-17T18:40:34.933Z,29.48
2023-03-17T18:43:03.155Z,19.30
2023-03-17T18:45:31.394Z,23.30
2023-03-17T18:47:59.644Z,19.27
2023-03-17T18:50:27.772Z,35.75
2023-03-17T18:52:56.110Z,17.17
2023-03-17T18:55:24.378Z,25.17
2023-03-17T18:57:54.583Z,20.50
2023-03-17T19:00:25.405Z,20.00
2023-03-17T19:02:53.947Z,26.15
2023-03-17T19:05:22.324Z,27.92
2023-03-17T19:07:50.522Z,26.75
2023-03-17T19:10:19.503Z,22.48
2023-03-17T19:12:47.992Z,24.00
2023-03-17T19:15:17.792Z,23.80
2023-03-17T19:17:45.896Z,17.77
2023-03-17T19:20:15.714Z,23.38
2023-03-17T19:22:43.754Z,24.02
2023-03-17T19:25:30.538Z,36.65
2023-03-17T19:27:59.206Z,45.45
2023-03-17T19:30:28.769Z,33.70
2023-03-17T19:32:56.999Z,32.40
2023-03-17T19:35:25.145Z,43.40
2023-03-17T19:37:53.181Z,36.30
2023-03-17T19:40:22.510Z,30.67
2023-03-17T19:42:50.586Z,29.98
2023-03-17T19:45:19.173Z,35.75
2023-03-17T19:47:49.103Z,41.67
2023-03-17T19:50:17.567Z,34.13
2023-03-17T19:52:46.064Z,40.47
2023-03-17T19:55:14.198Z,37.95
2023-03-17T19:57:42.394Z,39.20
2023-03-17T20:00:12.103Z,42.55
2023-03-17T20:02:40.517Z,35.47
2023-03-17T20:05:10.505Z,37.03
2023-03-17T20:07:40.750Z,38.92
2023-03-17T20:10:10.899Z,42.40
2023-03-17T20:12:39.512Z,32.22
2023-03-17T20:15:09.102Z,41.20
2023-03-17T20:17:37.666Z,39.83
2023-03-17T20:20:27.614Z,42.15
2023-03-17T20:23:43.404Z,48.08
2023-03-17T20:26:12.896Z,35.25
2023-03-17T20:28:41.081Z,40.75
2023-03-17T20:31:09.548Z,30.83
2023-03-17T20:33:37.828Z,40.13
2023-03-17T20:36:06.658Z,39.45
2023-03-17T20:38:37.009Z,37.47
2023-03-17T20:41:12.557Z,40.78
2023-03-17T20:43:40.866Z,29.13
2023-03-17T20:46:10.194Z,34.25
2023-03-17T20:48:38.922Z,28.15
2023-03-17T20:51:07.250Z,38.10
2023-03-17T20:53:36.293Z,29.33
2023-03-17T20:56:05.011Z,42.45
2023-03-17T20:58:34.595Z,32.92
2023-03-17T21:01:03.452Z,45.33
2023-03-17T21:03:32.481Z,38.92
2023-03-17T21:06:01.002Z,31.17
2023-03-17T21:08:29.137Z,31.63
2023-03-17T21:10:57.397Z,36.38
2023-03-17T21:13:25.478Z,36.30
2023-03-17T21:15:55.546Z,29.05
2023-03-17T21:18:24.456Z,31.58
2023-03-17T21:20:52.679Z,32.97
2023-03-17T21:23:21.013Z,38.22
2023-03-17T21:25:49.290Z,34.55
2023-03-17T21:28:17.467Z,33.85
2023-03-17T21:30:45.687Z,33.75
2023-03-17T21:33:15.557Z,31.60
2023-03-17T21:35:43.697Z,37.25
2023-03-17T21:38:11.994Z,33.00
2023-03-17T21:40:40.603Z,28.85
2023-03-17T21:43:09.069Z,31.08
2023-03-17T21:45:37.254Z,26.73
2023-03-17T21:48:05.827Z,28.17
2023-03-17T21:50:35.595Z,28.58
2023-03-17T21:53:04.730Z,30.15
2023-03-17T21:55:33.229Z,31.20
2023-03-17T21:58:02.489Z,23.75
2023-03-17T22:00:39.413Z,30.23
2023-03-17T22:03:12.855Z,29.77
2023-03-17T22:05:42.477Z,25.67
2023-03-17T22:08:10.605Z,28.20
2023-03-17T22:10:40.457Z,25.50
2023-03-17T22:13:08.756Z,23.90
2023-03-17T22:15:37.228Z,23.90
2023-03-17T22:18:06.095Z,27.77
2023-03-17T22:20:34.583Z,22.55
2023-03-17T22:23:04.217Z,23.77
2023-03-17T22:25:32.342Z,34.20
2023-03-17T22:28:00.537Z,39.42
2023-03-17T22:30:28.988Z,42.88
2023-03-17T22:32:57.604Z,39.75
2023-03-17T22:35:26.072Z,40.80
2023-03-17T22:37:54.194Z,30.15
2023-03-17T22:40:23.730Z,28.38
2023-03-17T22:42:52.122Z,34.58
2023-03-17T22:45:20.280Z,39.90
2023-03-17T22:47:48.520Z,42.63
2023-03-17T22:50:16.798Z,41.03
2023-03-17T22:52:44.912Z,38.95
2023-03-17T22:55:13.113Z,33.85
2023-03-17T22:57:43.500Z,40.25
2023-03-17T23:00:15.368Z,31.77
2023-03-17T23:02:43.990Z,35.33
2023-03-17T23:05:13.593Z,32.45
2023-03-17T23:07:51.566Z,34.45
2023-03-17T23:10:23.172Z,34.13
2023-03-17T23:12:53.233Z,28.50
2023-03-17T23:15:22.009Z,38.55
2023-03-17T23:17:50.192Z,38.60
2023-03-17T23:20:19.158Z,41.00
2023-03-17T23:22:47.749Z,30.63
2023-03-17T23:25:16.380Z,43.63
2023-03-17T23:27:44.740Z,49.25
2023-03-17T23:30:16.258Z,41.13
2023-03-17T23:35:14.277Z,48.40
2023-03-17T23:37:42.863Z,43.10
2023-03-17T23:40:14.009Z,41.35
2023-03-17T23:42:42.494Z,42.35
2023-03-17T23:45:11.943Z,42.90
2023-03-17T23:47:41.647Z,35.63
2023-03-17T23:50:11.559Z,43.08
2023-03-17T23:52:40.480Z,54.65
2023-03-17T23:55:10.119Z,51.60
2023-03-17T23:57:38.602Z,51.80
